Time;durP1;ratioP1;P1;durP2;ratioP2;P2;SDS_P1;SDS_P2;PMS_P1;PMS_P2;Temp;Humidity;BMP_temperature;BMP_pressure;BME280_temperature;BME280_humidity;BME280_pressure;Samples;Min_cycle;Max_cycle;Signal;HPM_P1;HPM_P2
2023/01/27 00:00:38;;;;;;;2.27;1.97;;;;;;;5.94;92.04;96137.16;5048167;28;20251;-72
2023/01/27 00:03:06;;;;;;;3.10;2.13;;;;;;;5.98;91.57;96156.69;5051217;28;20195;-72
2023/01/27 00:05:33;;;;;;;3.90;2.03;;;;;;;5.97;90.73;96149.06;5049609;28;20286;-72
2023/01/27 00:08:00;;;;;;;5.30;2.07;;;;;;;5.87;92.65;96152.91;5051184;28;20195;-72
2023/01/27 00:10:27;;;;;;;2.50;2.20;;;;;;;5.97;91.87;96178.16;5049994;28;20228;-72
2023/01/27 00:15:40;;;;;;;5.77;3.20;;;;;;;6.07;92.02;96207.72;5050725;28;20693;-73
2023/01/27 00:18:07;;;;;;;4.33;2.33;;;;;;;6.06;91.16;96198.31;5049209;28;20185;-71
2023/01/27 00:26:16;;;;;;;3.90;2.80;;;;;;;5.94;93.61;96185.13;5049583;28;20199;-71
2023/01/27 00:28:45;;;;;;;4.47;2.80;;;;;;;6.00;93.79;96187.44;5050650;28;20196;-71
2023/01/27 00:34:07;;;;;;;5.40;3.03;;;;;;;5.99;94.96;96190.94;5049185;28;20714;-71
2023/01/27 00:36:40;;;;;;;5.97;3.67;;;;;;;5.98;94.70;96192.66;5048687;28;20191;-72
2023/01/27 00:39:09;;;;;;;4.43;2.90;;;;;;;5.97;95.54;96195.31;5049446;28;20188;-72
2023/01/27 00:41:38;;;;;;;4.10;2.90;;;;;;;5.90;96.65;96192.16;5048928;28;20220;-71
2023/01/27 00:44:06;;;;;;;5.43;3.37;;;;;;;5.90;98.28;96179.31;5048734;28;20200;-72
2023/01/27 00:46:33;;;;;;;7.40;4.43;;;;;;;5.98;97.50;96177.25;5048853;28;20270;-71
2023/01/27 00:49:00;;;;;;;8.13;4.20;;;;;;;5.87;98.07;96176.03;5063873;28;20194;-72
2023/01/27 00:51:29;;;;;;;5.77;4.13;;;;;;;5.89;97.59;96172.50;5065374;28;20203;-71
2023/01/27 00:53:58;;;;;;;8.37;4.20;;;;;;;5.97;97.26;96172.19;5049445;28;20218;-72
2023/01/27 00:56:27;;;;;;;5.03;4.07;;;;;;;5.97;97.12;96169.59;5048809;28;20192;-71
2023/01/27 00:58:54;;;;;;;6.17;3.87;;;;;;;5.97;97.10;96164.47;5048550;28;20207;-71
2023/01/27 01:01:21;;;;;;;4.43;2.77;;;;;;;5.91;97.08;96144.16;5048006;28;20198;-71
2023/01/27 01:03:48;;;;;;;6.40;3.30;;;;;;;5.98;96.04;96140.44;5047914;28;20192;-71
2023/01/27 01:06:17;;;;;;;3.53;2.60;;;;;;;6.01;95.49;96156.56;5047990;28;20281;-71
2023/01/27 01:08:44;;;;;;;3.30;2.40;;;;;;;5.98;95.18;96146.41;5049582;28;20655;-72
2023/01/27 01:11:15;;;;;;;2.87;2.03;;;;;;;6.04;95.16;96146.16;5064465;28;20186;-71
2023/01/27 01:13:43;;;;;;;4.53;2.80;;;;;;;6.08;94.97;96139.97;5047398;28;20215;-72
2023/01/27 01:16:22;;;;;;;4.30;2.70;;;;;;;6.04;95.25;96135.06;5048531;28;20190;-71
2023/01/27 01:18:49;;;;;;;5.63;2.70;;;;;;;5.93;95.70;96132.94;5044980;28;20718;-72
2023/01/27 01:21:16;;;;;;;5.23;3.20;;;;;;;6.12;95.53;96125.28;5049473;28;20190;-72
2023/01/27 01:23:44;;;;;;;4.60;2.97;;;;;;;6.10;95.77;96127.91;5048145;28;20250;-72
2023/01/27 01:26:14;;;;;;;6.40;3.17;;;;;;;6.09;95.10;96128.81;5049185;28;20232;-72
2023/01/27 01:28:43;;;;;;;6.43;2.90;;;;;;;6.06;94.73;96113.50;5049363;28;20702;-72
2023/01/27 01:31:19;;;;;;;4.47;2.77;;;;;;;5.96;95.25;96073.69;5029644;28;20265;-72
2023/01/27 01:33:47;;;;;;;4.30;3.30;;;;;;;6.11;95.61;96124.44;5047980;28;20375;-72
2023/01/27 01:36:17;;;;;;;6.67;4.17;;;;;;;6.15;95.15;96120.84;5046393;28;20195;-72
2023/01/27 01:38:45;;;;;;;7.40;4.77;;;;;;;6.16;95.66;96119.09;5049254;28;20187;-72
2023/01/27 01:41:16;;;;;;;6.60;4.53;;;;;;;6.26;93.77;96126.34;5048374;28;20249;-72
2023/01/27 01:43:45;;;;;;;11.13;5.20;;;;;;;6.21;94.59;96107.72;5046943;28;20243;-73
2023/01/27 01:46:13;;;;;;;6.67;4.40;;;;;;;6.29;94.12;96115.09;5049020;28;20547;-72
2023/01/27 01:49:02;;;;;;;3.63;2.73;;;;;;;6.20;94.15;96088.03;5045942;28;20192;-72
2023/01/27 01:51:42;;;;;;;4.63;3.63;;;;;;;6.18;95.20;96081.31;5047757;28;20208;-72
2023/01/27 01:54:22;;;;;;;5.50;3.03;;;;;;;6.32;95.93;96090.09;5046759;28;20741;-71
2023/01/27 01:56:56;;;;;;;6.10;3.93;;;;;;;6.29;94.78;96091.94;5063002;28;20197;-71
2023/01/27 01:59:30;;;;;;;5.60;3.57;;;;;;;6.27;95.81;96086.88;5064029;28;20187;-72
2023/01/27 02:02:01;;;;;;;8.37;4.60;;;;;;;6.29;96.58;96079.09;5046969;28;20188;-72
2023/01/27 02:04:37;;;;;;;7.83;4.93;;;;;;;6.30;96.44;96081.63;5030806;28;20590;-71
2023/01/27 02:07:11;;;;;;;6.80;4.77;;;;;;;6.30;96.48;96066.19;5047722;28;20193;-72
2023/01/27 02:09:39;;;;;;;6.33;4.97;;;;;;;6.36;97.16;96063.34;5062679;28;20221;-71
2023/01/27 02:12:06;;;;;;;6.87;3.97;;;;;;;6.30;97.05;96055.06;5063717;28;20205;-71
2023/01/27 02:14:36;;;;;;;7.67;5.07;;;;;;;6.26;97.98;96038.13;5061350;28;20613;-71
2023/01/27 02:17:23;;;;;;;12.57;4.13;;;;;;;6.22;98.68;96046.88;5047227;28;20206;-72
2023/01/27 02:19:50;;;;;;;8.30;5.33;;;;;;;6.25;99.13;96042.41;5045780;28;20200;-71
2023/01/27 02:22:32;;;;;;;8.97;5.73;;;;;;;6.24;98.52;96050.19;5048172;28;20282;-71
2023/01/27 02:25:09;;;;;;;9.50;5.43;;;;;;;6.26;98.61;96040.69;5048469;28;20189;-72
2023/01/27 02:27:37;;;;;;;7.23;4.60;;;;;;;6.26;99.31;96032.97;5028358;28;20655;-74
2023/01/27 02:30:10;;;;;;;7.60;4.93;;;;;;;6.22;99.75;96045.09;5062647;28;20205;-71
2023/01/27 02:32:39;;;;;;;10.30;5.90;;;;;;;6.21;98.85;96030.59;5044626;28;20265;-72
2023/01/27 02:35:10;;;;;;;10.30;5.83;;;;;;;6.23;99.22;96043.38;5047973;28;20227;-72
2023/01/27 02:37:39;;;;;;;9.53;5.57;;;;;;;6.19;99.24;96042.69;5046255;28;20197;-72
2023/01/27 02:40:08;;;;;;;10.03;6.80;;;;;;;6.33;99.13;96055.75;5062348;28;20227;-72
2023/01/27 02:42:35;;;;;;;7.80;5.53;;;;;;;6.26;99.77;96049.25;5046872;28;20284;-72
2023/01/27 02:45:03;;;;;;;13.87;7.07;;;;;;;6.26;100.00;96038.97;5046278;28;20188;-73
2023/01/27 02:47:31;;;;;;;12.37;7.40;;;;;;;6.26;100.00;96038.97;5030035;28;20284;-72
2023/01/27 02:49:59;;;;;;;14.90;7.53;;;;;;;6.27;99.98;96043.19;5045046;28;20206;-72
2023/01/27 02:52:26;;;;;;;10.80;6.87;;;;;;;6.17;100.00;96043.66;5046612;28;20250;-72
2023/01/27 02:54:53;;;;;;;11.83;7.83;;;;;;;6.20;100.00;96076.94;5045806;28;20234;-72
2023/01/27 02:57:20;;;;;;;10.63;7.30;;;;;;;6.17;100.00;96064.22;5028838;28;20344;-72
2023/01/27 03:00:03;;;;;;;12.03;7.33;;;;;;;6.05;100.00;96051.91;5063037;28;20195;-72
2023/01/27 03:02:32;;;;;;;12.83;8.20;;;;;;;6.03;100.00;96046.84;5046096;28;20185;-72
2023/01/27 03:05:01;;;;;;;11.93;6.60;;;;;;;6.01;100.00;96047.81;5047688;28;20600;-72
2023/01/27 03:07:29;;;;;;;13.10;8.30;;;;;;;6.06;100.00;96046.69;5061813;28;20271;-72
2023/01/27 03:09:56;;;;;;;10.67;6.70;;;;;;;6.00;100.00;96044.41;5045892;28;20199;-72
2023/01/27 03:12:23;;;;;;;9.73;6.73;;;;;;;6.00;100.00;96035.84;5047186;28;20623;-72
2023/01/27 03:20:24;;;;;;;13.17;7.37;;;;;;;6.03;100.00;96044.28;5046019;28;20281;-71
2023/01/27 03:22:51;;;;;;;13.80;7.77;;;;;;;5.69;100.00;95969.53;5047117;28;20218;-71
2023/01/27 03:25:21;;;;;;;12.40;7.30;;;;;;;6.17;100.00;96034.22;5045888;28;20219;-72
2023/01/27 03:27:48;;;;;;;12.67;7.70;;;;;;;6.17;100.00;96023.09;5045749;28;20567;-72
2023/01/27 03:30:29;;;;;;;12.60;7.50;;;;;;;6.12;100.00;96017.34;5046027;28;20205;-73
2023/01/27 03:33:07;;;;;;;12.77;6.67;;;;;;;6.12;100.00;96030.19;5044421;28;20573;-72
2023/01/27 03:47:03;;;;;;;7.97;5.57;;;;;;;6.11;100.00;96034.50;5047120;28;20195;-72
2023/01/27 03:49:30;;;;;;;9.13;6.33;;;;;;;6.12;100.00;96025.84;5045725;28;20198;-72
2023/01/27 03:51:57;;;;;;;9.30;5.50;;;;;;;6.10;100.00;96017.38;5047275;28;20694;-72
2023/01/27 03:54:25;;;;;;;6.37;4.83;;;;;;;6.11;100.00;96031.91;5060729;28;20232;-72
2023/01/27 03:56:52;;;;;;;7.80;5.20;;;;;;;6.15;100.00;96030.03;5062525;28;20603;-71
2023/01/27 03:59:19;;;;;;;7.10;4.67;;;;;;;6.15;100.00;96015.47;5028017;28;20201;-72
2023/01/27 04:01:46;;;;;;;8.60;4.57;;;;;;;6.21;100.00;96017.75;5062048;28;20279;-72
2023/01/27 04:07:01;;;;;;;9.57;6.27;;;;;;;6.23;100.00;96017.66;5045452;28;20221;-72
2023/01/27 04:09:32;;;;;;;8.57;5.83;;;;;;;6.28;100.00;96029.44;5045546;28;20192;-73
2023/01/27 04:12:03;;;;;;;10.70;6.40;;;;;;;6.25;100.00;96037.28;5044277;28;20199;-73
2023/01/27 04:14:31;;;;;;;11.17;7.37;;;;;;;6.22;100.00;96034.81;5046751;28;20229;-72
2023/01/27 04:17:01;;;;;;;8.87;6.63;;;;;;;6.31;100.00;96041.28;5035621;28;20578;-73
2023/01/27 04:19:29;;;;;;;10.90;7.93;;;;;;;6.32;100.00;96035.25;5025761;28;20764;-72
2023/01/27 04:21:57;;;;;;;10.40;6.27;;;;;;;6.27;100.00;96032.91;5027208;28;20280;-72
2023/01/27 04:24:24;;;;;;;13.00;8.27;;;;;;;6.32;100.00;96030.97;5025617;28;20231;-72
2023/01/27 04:26:59;;;;;;;14.67;7.00;;;;;;;6.29;100.00;96035.38;5027028;28;20765;-71
2023/01/27 04:29:29;;;;;;;12.47;7.67;;;;;;;6.28;100.00;96038.88;5025573;28;20698;-72
2023/01/27 04:31:56;;;;;;;12.50;7.67;;;;;;;6.22;100.00;96016.03;5025427;28;20283;-71
2023/01/27 04:34:26;;;;;;;16.10;7.60;;;;;;;6.24;100.00;96024.50;5025324;28;20299;-71
2023/01/27 04:36:54;;;;;;;13.00;7.17;;;;;;;6.23;100.00;96026.22;5028673;28;20672;-71
2023/01/27 04:39:21;;;;;;;14.13;8.77;;;;;;;6.29;100.00;96025.94;5034798;28;20249;-72
2023/01/27 04:41:48;;;;;;;12.93;8.23;;;;;;;6.27;100.00;96006.34;5044272;28;20318;-72
2023/01/27 04:44:15;;;;;;;13.13;7.00;;;;;;;6.28;100.00;96015.75;5048848;28;20192;-73
2023/01/27 04:46:42;;;;;;;10.60;5.60;;;;;;;6.22;100.00;96016.84;5042245;28;20483;-71
2023/01/27 04:49:10;;;;;;;13.80;7.00;;;;;;;6.18;100.00;96015.31;5034505;28;20209;-72
2023/01/27 04:51:37;;;;;;;9.00;6.27;;;;;;;6.27;100.00;96001.19;5028371;28;20196;-73
2023/01/27 04:54:04;;;;;;;20.33;12.13;;;;;;;6.27;100.00;95983.22;5039671;28;20260;-72
2023/01/27 04:56:37;;;;;;;7.43;5.73;;;;;;;6.31;100.00;95977.88;5050107;28;20722;-72
2023/01/27 04:59:07;;;;;;;9.97;6.27;;;;;;;6.33;100.00;95988.06;5048458;28;20195;-71
2023/01/27 05:01:34;;;;;;;11.87;6.50;;;;;;;6.39;100.00;95986.06;5049885;28;20230;-72
2023/01/27 05:04:01;;;;;;;10.00;6.33;;;;;;;6.39;100.00;95983.47;5048540;28;20672;-72
2023/01/27 05:06:28;;;;;;;9.23;6.50;;;;;;;6.44;100.00;95978.13;5049616;28;20195;-73
2023/01/27 05:08:55;;;;;;;11.23;6.63;;;;;;;6.45;100.00;95988.34;5042634;28;20193;-72
2023/01/27 05:11:22;;;;;;;12.33;7.67;;;;;;;6.40;100.00;95990.31;5038402;28;20196;-73
2023/01/27 05:13:50;;;;;;;12.37;7.57;;;;;;;6.43;100.00;95979.03;5049484;28;20316;-73
2023/01/27 05:16:19;;;;;;;13.20;7.93;;;;;;;6.46;100.00;95979.72;5046482;28;20270;-73
2023/01/27 05:18:49;;;;;;;13.33;9.40;;;;;;;6.46;100.00;95982.31;5049618;28;20192;-73
2023/01/27 05:21:18;;;;;;;13.70;9.50;;;;;;;6.58;100.00;95986.88;5048182;28;20275;-73
2023/01/27 05:23:46;;;;;;;15.20;10.47;;;;;;;6.51;100.00;95987.25;5049278;28;20221;-73
2023/01/27 05:26:20;;;;;;;12.80;10.00;;;;;;;6.55;100.00;95981.03;5047649;28;20683;-73
2023/01/27 05:28:48;;;;;;;15.87;10.47;;;;;;;6.49;100.00;95979.56;5047989;28;20204;-73
2023/01/27 05:31:19;;;;;;;16.00;9.97;;;;;;;6.56;100.00;95991.25;5048037;28;20215;-73
2023/01/27 05:33:48;;;;;;;17.57;10.97;;;;;;;6.51;100.00;95988.03;5047763;28;20282;-73
2023/01/27 05:36:17;;;;;;;18.47;12.63;;;;;;;6.59;100.00;96006.53;5049336;28;20252;-74
2023/01/27 05:38:45;;;;;;;18.27;11.40;;;;;;;6.47;100.00;95960.81;5048300;28;20184;-73
2023/01/27 05:41:14;;;;;;;13.37;8.27;;;;;;;6.63;100.00;95998.69;5048457;28;20318;-74
2023/01/27 05:43:43;;;;;;;12.77;7.57;;;;;;;6.61;100.00;96003.91;5047763;28;20184;-74
2023/01/27 05:46:17;;;;;;;10.70;7.37;;;;;;;6.64;100.00;96019.19;5047548;28;20197;-73
2023/01/27 05:48:47;;;;;;;14.97;9.80;;;;;;;6.50;100.00;96006.97;5049106;28;20191;-73
2023/01/27 05:51:16;;;;;;;14.73;9.57;;;;;;;6.51;100.00;96012.97;5047494;28;20189;-74
2023/01/27 05:53:43;;;;;;;13.87;9.10;;;;;;;6.49;100.00;96005.28;5048998;28;20282;-74
2023/01/27 05:56:14;;;;;;;13.93;9.70;;;;;;;6.51;100.00;96013.75;5030250;28;20209;-74
2023/01/27 05:58:41;;;;;;;13.80;9.00;;;;;;;6.47;100.00;96004.53;5046633;28;20702;-74
2023/01/27 06:01:20;;;;;;;16.13;10.93;;;;;;;6.53;100.00;96017.09;5048859;28;20607;-74
2023/01/27 06:03:47;;;;;;;14.40;10.00;;;;;;;6.45;100.00;96016.63;5047228;28;20188;-74
2023/01/27 06:06:16;;;;;;;14.90;10.37;;;;;;;6.45;100.00;96026.09;5048821;28;20250;-72
2023/01/27 06:08:45;;;;;;;20.90;11.90;;;;;;;6.38;100.00;96010.13;5045739;28;20199;-72
2023/01/27 06:11:14;;;;;;;23.00;13.90;;;;;;;6.31;100.00;96011.28;5030705;28;20202;-74
2023/01/27 06:13:41;;;;;;;25.23;16.00;;;;;;;6.39;100.00;96010.94;5030257;28;20228;-73
2023/01/27 06:16:10;;;;;;;16.80;10.93;;;;;;;6.41;100.00;96002.25;5045852;28;20191;-73
2023/01/27 06:18:38;;;;;;;16.93;9.60;;;;;;;6.28;100.00;96013.16;5030266;28;20288;-73
2023/01/27 06:21:08;;;;;;;15.03;10.23;;;;;;;6.29;100.00;96023.38;5046718;28;20208;-73
2023/01/27 06:23:36;;;;;;;17.07;10.27;;;;;;;6.25;100.00;96034.69;5048421;28;20207;-72
2023/01/27 06:26:12;;;;;;;15.90;10.77;;;;;;;6.33;100.00;96022.31;5046859;28;20253;-72
2023/01/27 06:28:39;;;;;;;17.43;10.47;;;;;;;6.32;100.00;96035.25;5047748;28;20219;-72
2023/01/27 06:31:12;;;;;;;19.03;12.67;;;;;;;6.31;100.00;96023.28;5046514;28;20192;-73
2023/01/27 06:33:40;;;;;;;20.63;13.30;;;;;;;6.45;100.00;96026.09;5045304;28;20218;-73
2023/01/27 06:36:10;;;;;;;22.23;15.10;;;;;;;6.44;100.00;96040.69;5030336;28;20289;-73
2023/01/27 06:38:37;;;;;;;23.53;14.40;;;;;;;6.37;100.00;96051.28;5046607;28;20198;-73
2023/01/27 06:41:04;;;;;;;20.97;13.27;;;;;;;6.30;100.00;96035.34;5047786;28;20222;-73
2023/01/27 06:43:32;;;;;;;25.37;15.70;;;;;;;6.38;100.00;96053.81;5046892;28;20191;-73
2023/01/27 06:45:59;;;;;;;28.90;19.10;;;;;;;6.38;100.00;96046.09;5045834;28;20248;-73
2023/01/27 06:48:27;;;;;;;25.33;17.50;;;;;;;6.39;100.00;96042.63;5046270;28;20194;-73
2023/01/27 06:50:56;;;;;;;22.23;15.50;;;;;;;6.29;100.00;96036.22;5046271;28;20284;-74
2023/01/27 06:53:23;;;;;;;17.63;11.87;;;;;;;6.27;100.00;96040.59;5047670;28;20195;-74
2023/01/27 06:55:58;;;;;;;17.90;10.37;;;;;;;6.18;100.00;96033.28;5045907;28;20321;-73
2023/01/27 06:58:25;;;;;;;11.13;7.53;;;;;;;6.17;100.00;96044.50;5046380;28;20190;-73
2023/01/27 07:00:53;;;;;;;12.60;8.20;;;;;;;6.13;100.00;96053.25;5028294;28;20580;-73
2023/01/27 07:03:20;;;;;;;11.73;8.47;;;;;;;6.14;99.83;96044.63;5045728;28;20274;-73
2023/01/27 07:05:47;;;;;;;11.97;8.47;;;;;;;6.16;99.90;96057.41;5047506;28;20327;-74
2023/01/27 07:08:15;;;;;;;18.37;10.97;;;;;;;6.08;100.00;96042.31;5044793;28;20194;-74
2023/01/27 07:10:42;;;;;;;28.63;17.07;;;;;;;6.06;100.00;96053.59;5045901;28;20187;-73
2023/01/27 07:13:11;;;;;;;27.63;15.80;;;;;;;5.97;100.00;96051.41;5044229;28;20273;-73
2023/01/27 07:15:39;;;;;;;27.67;18.30;;;;;;;5.99;100.00;96049.59;5047269;28;20612;-73
2023/01/27 07:18:06;;;;;;;17.10;10.93;;;;;;;5.93;100.00;96055.84;5046089;28;20232;-73
2023/01/27 07:20:33;;;;;;;17.67;12.47;;;;;;;5.86;100.00;96053.59;5046767;28;20201;-73
2023/01/27 07:23:03;;;;;;;15.80;11.00;;;;;;;5.84;100.00;96058.81;5045854;28;20588;-73
2023/01/27 07:25:32;;;;;;;15.80;11.40;;;;;;;5.90;100.00;96055.13;5045692;28;20201;-73
2023/01/27 07:28:01;;;;;;;13.20;9.03;;;;;;;5.88;100.00;96057.78;5047245;28;20193;-73
2023/01/27 07:30:29;;;;;;;14.77;10.53;;;;;;;5.91;100.00;96049.09;5045397;28;20183;-73
2023/01/27 07:33:03;;;;;;;16.03;9.83;;;;;;;5.93;100.00;96039.59;5045682;28;20200;-73
2023/01/27 07:35:30;;;;;;;12.17;9.10;;;;;;;6.01;100.00;96042.66;5046497;28;20701;-73
2023/01/27 07:37:57;;;;;;;10.63;7.97;;;;;;;6.02;100.00;96040.03;5044668;28;20748;-73
2023/01/27 07:40:25;;;;;;;12.13;9.13;;;;;;;5.99;100.00;96029.91;5028812;28;20727;-73
2023/01/27 07:42:56;;;;;;;12.93;9.00;;;;;;;6.00;100.00;96036.69;5045420;28;20219;-73
2023/01/27 07:45:26;;;;;;;15.63;10.80;;;;;;;6.03;100.00;96015.16;5029504;28;20648;-73
2023/01/27 07:47:59;;;;;;;15.03;8.57;;;;;;;6.06;100.00;96015.03;5045332;28;20546;-72
2023/01/27 07:50:26;;;;;;;11.30;8.10;;;;;;;6.09;100.00;96020.03;5045413;28;20724;-75
2023/01/27 07:52:53;;;;;;;11.30;7.80;;;;;;;6.08;100.00;96028.66;5044663;28;20271;-73
2023/01/27 07:55:20;;;;;;;13.33;9.70;;;;;;;6.18;100.00;96022.19;5044519;28;20278;-74
2023/01/27 07:57:47;;;;;;;11.97;8.77;;;;;;;6.14;100.00;96021.47;5046775;28;20660;-74
2023/01/27 08:00:14;;;;;;;14.67;9.43;;;;;;;6.23;100.00;96013.38;5045345;28;20285;-73
2023/01/27 08:02:41;;;;;;;14.73;9.53;;;;;;;6.20;100.00;96020.41;5045306;28;20237;-73
2023/01/27 08:05:09;;;;;;;15.90;10.00;;;;;;;6.15;100.00;96015.47;5043881;28;20650;-73
2023/01/27 08:07:36;;;;;;;12.03;10.23;;;;;;;6.21;100.00;96011.75;5046865;28;20548;-73
2023/01/27 08:10:03;;;;;;;16.73;10.53;;;;;;;6.23;100.00;96007.38;5045366;28;20195;-73
2023/01/27 08:12:30;;;;;;;15.60;10.97;;;;;;;6.31;100.00;96006.16;5046092;28;20193;-73
2023/01/27 08:14:59;;;;;;;14.47;10.90;;;;;;;6.21;100.00;95993.78;5049879;28;20739;-73
2023/01/27 08:17:26;;;;;;;15.73;11.53;;;;;;;6.22;100.00;95974.91;5047586;28;20201;-73
2023/01/27 08:19:53;;;;;;;19.00;13.27;;;;;;;6.50;100.00;96004.41;5049129;28;20191;-73
2023/01/27 08:22:21;;;;;;;22.60;14.40;;;;;;;6.11;100.00;95929.13;5030697;28;20206;-74
2023/01/27 08:24:49;;;;;;;18.07;12.73;;;;;;;6.57;100.00;95997.25;5050239;28;20519;-72
2023/01/27 08:27:16;;;;;;;16.30;11.30;;;;;;;6.51;100.00;95980.34;5047815;28;20215;-73
2023/01/27 08:29:43;;;;;;;20.20;13.30;;;;;;;6.56;100.00;95983.53;5048682;28;20189;-72
2023/01/27 08:32:11;;;;;;;20.40;13.87;;;;;;;6.52;100.00;95979.44;5048544;28;20225;-73
2023/01/27 08:34:41;;;;;;;23.20;16.17;;;;;;;6.52;100.00;95965.75;5048694;28;20263;-72
2023/01/27 08:37:08;;;;;;;24.93;17.30;;;;;;;6.30;100.00;95929.94;5032292;28;20295;-72
2023/01/27 08:39:35;;;;;;;21.43;14.30;;;;;;;6.53;100.00;95965.66;5048142;28;20250;-73
2023/01/27 08:42:03;;;;;;;22.27;15.27;;;;;;;6.70;100.00;95974.34;5049668;28;20218;-73
2023/01/27 08:44:30;;;;;;;23.00;15.80;;;;;;;6.69;100.00;95970.94;5046783;28;20192;-73
2023/01/27 08:46:57;;;;;;;18.73;13.77;;;;;;;6.66;100.00;95962.53;5049396;28;20188;-74
2023/01/27 08:49:24;;;;;;;24.33;16.13;;;;;;;6.77;99.95;95973.97;5031535;28;20578;-73
2023/01/27 08:51:51;;;;;;;23.47;15.73;;;;;;;6.76;100.00;95969.72;5048196;28;20204;-74
2023/01/27 08:54:18;;;;;;;20.60;15.23;;;;;;;6.85;100.00;95971.03;5049618;28;20186;-73
2023/01/27 08:56:45;;;;;;;20.47;15.27;;;;;;;6.76;100.00;95962.00;5047888;28;20308;-73
2023/01/27 08:59:12;;;;;;;23.07;17.00;;;;;;;6.90;100.00;95976.78;5048122;28;20276;-73
2023/01/27 09:01:40;;;;;;;29.20;20.43;;;;;;;6.96;99.72;95976.50;5047758;28;20201;-73
2023/01/27 09:04:07;;;;;;;36.00;23.80;;;;;;;7.01;100.00;95965.06;5047918;28;20212;-73
2023/01/27 09:06:34;;;;;;;30.67;20.77;;;;;;;7.07;99.83;95959.59;5048985;28;20193;-73
2023/01/27 09:09:07;;;;;;;24.47;17.07;;;;;;;7.26;99.92;95954.38;5046900;28;20224;-73
2023/01/27 09:11:41;;;;;;;19.70;13.97;;;;;;;7.39;99.02;95963.16;5047655;28;20243;-73
2023/01/27 09:14:09;;;;;;;39.90;22.67;;;;;;;7.31;97.79;95947.25;5047614;28;20191;-74
2023/01/27 09:16:36;;;;;;;18.73;12.97;;;;;;;7.35;97.27;95959.06;5047560;28;20334;-73
2023/01/27 09:19:03;;;;;;;23.63;16.47;;;;;;;7.53;97.61;95963.28;5046371;28;20192;-74
2023/01/27 09:21:30;;;;;;;22.27;15.43;;;;;;;7.59;97.51;95965.53;5030821;28;20194;-73
2023/01/27 09:23:58;;;;;;;19.47;13.17;;;;;;;7.63;97.31;95958.47;5046962;28;20611;-73
2023/01/27 09:26:25;;;;;;;18.37;13.13;;;;;;;7.60;97.09;95962.06;5046112;28;20224;-73
2023/01/27 09:28:51;;;;;;;18.53;13.33;;;;;;;7.57;96.04;95956.22;5047335;28;20190;-73
2023/01/27 09:31:18;;;;;;;17.73;12.67;;;;;;;7.59;96.83;95952.66;5047116;28;20196;-73
2023/01/27 09:33:45;;;;;;;16.83;12.93;;;;;;;7.54;96.22;95957.25;5048744;28;20218;-73
2023/01/27 09:36:17;;;;;;;15.43;11.93;;;;;;;7.50;96.76;95958.28;5045902;28;20222;-73
2023/01/27 09:38:51;;;;;;;18.77;13.97;;;;;;;7.49;97.23;95954.06;5047266;28;20243;-74
2023/01/27 09:41:27;;;;;;;22.50;15.83;;;;;;;7.46;97.29;95945.66;5047088;28;20250;-73
2023/01/27 09:44:20;;;;;;;18.40;13.33;;;;;;;7.55;97.45;95952.91;5047070;28;20577;-74
2023/01/27 09:47:16;;;;;;;16.67;12.10;;;;;;;7.42;97.61;95934.66;5048647;28;20270;-73
2023/01/27 09:50:11;;;;;;;15.90;10.87;;;;;;;7.34;98.61;95947.09;5030418;28;20190;-73
2023/01/27 09:53:02;;;;;;;29.77;19.30;;;;;;;7.44;98.83;95948.28;5047001;28;20196;-74
2023/01/27 09:55:40;;;;;;;27.47;19.60;;;;;;;7.27;99.56;95945.75;5048375;28;20214;-74
2023/01/27 09:58:34;;;;;;;27.63;20.07;;;;;;;7.30;99.19;95943.84;5046373;28;20180;-74
2023/01/27 10:01:10;;;;;;;36.80;25.73;;;;;;;7.35;99.20;95947.03;5023989;28;20270;-73
2023/01/27 10:04:08;;;;;;;39.20;27.40;;;;;;;7.37;98.90;95940.06;5047246;28;20196;-73
2023/01/27 10:06:53;;;;;;;37.07;26.60;;;;;;;7.39;98.80;95942.56;5028864;28;20716;-73
2023/01/27 10:09:37;;;;;;;35.10;24.23;;;;;;;7.39;98.58;95924.53;5047481;28;20201;-72
2023/01/27 10:12:29;;;;;;;24.93;18.83;;;;;;;7.50;99.41;95935.09;5047079;28;20310;-74
2023/01/27 10:15:08;;;;;;;22.83;16.73;;;;;;;7.37;98.93;95916.88;5045187;28;20205;-73
2023/01/27 10:18:03;;;;;;;16.10;11.20;;;;;;;7.50;99.16;95927.38;5047928;28;20189;-72
2023/01/27 10:20:55;;;;;;;18.53;13.27;;;;;;;7.48;98.69;95920.66;5046865;28;20240;-73
2023/01/27 10:23:50;;;;;;;31.00;21.17;;;;;;;7.47;98.33;95918.97;5039429;28;20647;-73
2023/01/27 10:26:41;;;;;;;24.77;17.57;;;;;;;7.49;98.54;95914.56;5047698;28;20197;-73
2023/01/27 10:29:12;;;;;;;18.80;13.57;;;;;;;7.34;98.23;95908.47;5047862;28;20221;-73
2023/01/27 10:32:09;;;;;;;20.27;14.53;;;;;;;7.39;98.57;95909.91;5044464;28;20198;-73
2023/01/27 10:34:45;;;;;;;22.70;16.20;;;;;;;7.48;99.15;95900.84;5010802;28;20700;-73
2023/01/27 10:37:19;;;;;;;26.77;18.27;;;;;;;7.62;98.36;95897.59;5046393;28;20319;-74
2023/01/27 10:40:08;;;;;;;28.70;20.07;;;;;;;7.40;98.83;95892.69;5045371;28;20280;-74
2023/01/27 10:42:45;;;;;;;36.37;25.07;;;;;;;7.21;99.31;95846.47;5046379;28;20728;-74
2023/01/27 10:45:27;;;;;;;42.27;27.23;;;;;;;7.48;99.46;95869.13;5046241;28;20201;-75
2023/01/27 10:48:12;;;;;;;42.60;28.07;;;;;;;7.45;99.33;95879.59;5047457;28;20193;-75
2023/01/27 10:50:44;;;;;;;40.53;26.40;;;;;;;7.56;99.14;95875.56;5046169;28;20277;-73
2023/01/27 10:53:18;;;;;;;39.63;26.97;;;;;;;7.62;99.57;95874.41;5044456;28;20773;-73
2023/01/27 10:56:01;;;;;;;39.10;28.90;;;;;;;7.64;98.97;95864.84;5045484;28;20806;-74
2023/01/27 10:58:28;;;;;;;34.00;24.37;;;;;;;7.58;98.94;95860.84;5046011;28;20190;-73
2023/01/27 11:00:56;;;;;;;31.63;21.30;;;;;;;7.56;99.67;95842.06;5045844;28;20375;-74
2023/01/27 11:04:28;;;;;;;30.40;20.50;;;;;;;7.67;98.99;95854.34;5047417;28;20190;-73
2023/01/27 11:06:56;;;;;;;21.80;15.53;;;;;;;7.60;98.91;95847.88;5003235;28;20256;-73
2023/01/27 11:09:36;;;;;;;18.80;13.23;;;;;;;7.52;99.07;95830.28;5045853;28;20194;-73
2023/01/27 11:12:12;;;;;;;14.70;10.93;;;;;;;7.65;98.60;95851.88;5046888;28;20199;-72
2023/01/27 11:14:51;;;;;;;12.37;9.03;;;;;;;7.55;99.01;95847.28;5044364;28;20198;-73
2023/01/27 11:17:26;;;;;;;10.93;8.43;;;;;;;7.56;98.88;95839.50;5047112;28;20712;-73
2023/01/27 11:19:53;;;;;;;10.70;8.00;;;;;;;7.57;99.36;95842.88;5027445;28;20597;-73
2023/01/27 11:22:43;;;;;;;16.27;11.40;;;;;;;7.49;99.29;95839.88;5046969;28;20231;-72
2023/01/27 11:25:42;;;;;;;12.23;9.30;;;;;;;7.50;99.24;95847.53;5047248;28;20681;-73
2023/01/27 11:28:32;;;;;;;10.83;8.00;;;;;;;7.48;99.26;95849.34;4992326;28;20215;-72
2023/01/27 11:31:11;;;;;;;9.20;6.90;;;;;;;7.48;99.23;95849.34;5045530;28;20202;-74
2023/01/27 11:33:47;;;;;;;12.70;8.90;;;;;;;7.49;99.43;95840.72;5029150;28;20203;-73
2023/01/27 11:36:15;;;;;;;13.50;9.43;;;;;;;7.47;98.67;95847.69;5044286;28;20221;-73
2023/01/27 11:38:42;;;;;;;10.60;7.70;;;;;;;7.44;98.46;95826.44;5047226;28;20201;-73
2023/01/27 11:41:09;;;;;;;11.40;8.10;;;;;;;7.52;97.93;95835.41;5045005;28;20701;-73
2023/01/27 11:43:37;;;;;;;12.10;8.57;;;;;;;7.33;97.97;95834.72;5046896;28;20195;-72
2023/01/27 11:46:07;;;;;;;9.97;6.80;;;;;;;7.28;97.41;95834.94;5044309;28;20688;-73
2023/01/27 11:48:39;;;;;;;9.70;6.40;;;;;;;7.33;98.59;95832.16;5047960;28;20189;-73
2023/01/27 11:51:21;;;;;;;9.87;7.43;;;;;;;7.46;97.70;95840.88;5051001;28;20196;-73
2023/01/27 11:54:12;;;;;;;10.93;7.90;;;;;;;7.53;98.27;95834.50;5047710;28;20294;-73
2023/01/27 11:56:42;;;;;;;18.63;10.80;;;;;;;7.45;97.54;95840.97;5049467;28;20229;-73
2023/01/27 11:59:22;;;;;;;15.60;10.73;;;;;;;7.39;97.71;95839.53;5050079;28;20189;-74
2023/01/27 12:02:00;;;;;;;12.37;8.03;;;;;;;7.08;98.72;95845.44;5048828;28;20190;-73
2023/01/27 12:05:06;;;;;;;12.27;7.50;;;;;;;6.96;98.23;95840.94;5049096;28;20196;-73
2023/01/27 12:07:45;;;;;;;8.50;5.90;;;;;;;6.99;98.92;95838.19;5047803;28;20232;-73
2023/01/27 12:10:32;;;;;;;9.80;5.63;;;;;;;6.90;97.95;95851.53;5048407;28;20647;-73
2023/01/27 12:13:16;;;;;;;10.60;6.83;;;;;;;6.89;97.69;95846.44;5050444;28;20555;-72
2023/01/27 12:15:52;;;;;;;11.03;7.60;;;;;;;6.73;98.92;95853.28;5048696;28;20274;-74
2023/01/27 12:18:22;;;;;;;17.83;14.60;;;;;;;6.43;99.07;95815.31;5050224;28;20200;-73
2023/01/27 12:21:01;;;;;;;21.93;16.97;;;;;;;6.54;98.99;95833.63;5048111;28;20262;-73